Time;durP1;ratioP1;P1;durP2;ratioP2;P2;SDS_P1;SDS_P2;PMS_P1;PMS_P2;Temp;Humidity;BMP_temperature;BMP_pressure;BME280_temperature;BME280_humidity;BME280_pressure;Samples;Min_cycle;Max_cycle;Signal;HPM_P1;HPM_P2
2021/11/20 00:02:08;;;;;;;62.75;21.30;;;3.90;91.20;;;;;;5033063;28;20084;-75
2021/11/20 00:04:34;;;;;;;46.33;18.35;;;3.80;91.20;;;;;;5033603;28;20041;-75
2021/11/20 00:07:03;;;;;;;43.60;17.40;;;3.70;91.10;;;;;;5031199;28;20116;-74
2021/11/20 00:09:29;;;;;;;43.55;17.40;;;3.70;91.00;;;;;;5031335;28;20029;-75
2021/11/20 00:12:03;;;;;;;38.78;15.23;;;3.60;91.30;;;;;;5025938;28;20019;-76
2021/11/20 00:14:29;;;;;;;29.25;13.98;;;3.70;91.00;;;;;;5031101;28;20315;-76
2021/11/20 00:17:00;;;;;;;39.85;15.65;;;3.70;90.70;;;;;;5031358;28;20036;-74
2021/11/20 00:19:26;;;;;;;31.38;13.93;;;3.70;91.30;;;;;;5033464;28;20029;-74
2021/11/20 00:22:09;;;;;;;31.58;14.82;;;3.80;91.10;;;;;;5035939;28;20350;-75
2021/11/20 00:24:38;;;;;;;33.55;14.30;;;3.80;91.20;;;;;;5034020;28;20107;-76
2021/11/20 00:27:09;;;;;;;44.78;16.83;;;3.80;91.10;;;;;;5035109;28;20136;-75
2021/11/20 00:29:43;;;;;;;40.10;15.15;;;3.80;91.50;;;;;;5017936;28;20063;-75
2021/11/20 00:32:13;;;;;;;39.08;15.80;;;3.80;91.80;;;;;;5035045;28;20031;-75
2021/11/20 00:34:41;;;;;;;29.98;12.60;;;3.80;92.20;;;;;;5034327;28;20071;-74
2021/11/20 00:37:07;;;;;;;29.38;13.23;;;3.70;92.20;;;;;;5035040;28;20017;-76
2021/11/20 00:39:34;;;;;;;28.05;12.75;;;3.70;92.50;;;;;;5033670;28;20037;-74
2021/11/20 00:42:02;;;;;;;27.52;11.82;;;3.60;92.50;;;;;;5038753;28;20032;-76
2021/11/20 00:44:28;;;;;;;30.55;13.20;;;3.60;92.60;;;;;;5023725;28;20036;-76
2021/11/20 00:46:54;;;;;;;33.22;13.68;;;3.60;92.60;;;;;;5036856;28;20369;-75
2021/11/20 00:49:22;;;;;;;26.13;11.77;;;3.60;92.50;;;;;;5018919;28;20045;-75
2021/11/20 00:51:48;;;;;;;19.98;8.90;;;3.70;92.00;;;;;;5035349;28;20105;-76
2021/11/20 00:54:15;;;;;;;19.08;8.35;;;3.70;92.00;;;;;;5017279;28;20025;-75
2021/11/20 00:56:41;;;;;;;16.27;7.30;;;3.70;92.90;;;;;;5018017;28;20049;-75
2021/11/20 00:59:07;;;;;;;15.20;7.78;;;3.70;92.80;;;;;;5035376;28;20021;-76
2021/11/20 01:01:50;;;;;;;16.85;7.72;;;3.60;93.20;;;;;;5018002;28;20040;-75
2021/11/20 01:04:16;;;;;;;13.77;7.05;;;3.70;93.30;;;;;;5035478;28;20072;-76
2021/11/20 01:06:44;;;;;;;13.35;6.63;;;3.70;93.50;;;;;;5035133;28;20030;-76
2021/11/20 01:09:13;;;;;;;12.43;6.10;;;3.60;94.30;;;;;;5016808;28;20339;-75
2021/11/20 01:11:46;;;;;;;10.68;5.50;;;3.50;94.70;;;;;;5032239;28;20036;-76
2021/11/20 01:14:14;;;;;;;12.77;6.30;;;3.30;95.20;;;;;;5017841;28;20036;-76
2021/11/20 01:16:42;;;;;;;15.60;7.20;;;3.30;94.70;;;;;;5035217;28;20100;-75
2021/11/20 01:19:08;;;;;;;12.93;6.05;;;3.30;94.50;;;;;;5034564;28;20103;-76
2021/11/20 01:21:35;;;;;;;13.68;6.50;;;3.40;94.40;;;;;;5036331;28;20033;-75
2021/11/20 01:24:03;;;;;;;10.65;5.57;;;3.40;94.20;;;;;;5032642;28;20033;-75
2021/11/20 01:26:29;;;;;;;11.48;5.60;;;3.50;94.30;;;;;;5034748;28;20100;-76
2021/11/20 01:28:56;;;;;;;12.43;6.20;;;3.50;94.50;;;;;;5036410;28;20132;-76
2021/11/20 01:31:24;;;;;;;13.48;6.10;;;3.50;94.60;;;;;;5033133;28;20038;-76
2021/11/20 01:33:50;;;;;;;11.02;5.60;;;3.50;94.60;;;;;;5035061;28;20021;-75
2021/11/20 01:36:20;;;;;;;11.45;5.47;;;3.50;94.00;;;;;;5018771;28;20064;-76
2021/11/20 01:38:47;;;;;;;10.23;5.43;;;3.60;93.90;;;;;;5035732;28;20422;-76
2021/11/20 01:41:14;;;;;;;11.65;6.25;;;3.60;93.90;;;;;;5034480;28;20152;-76
2021/11/20 01:43:46;;;;;;;11.68;5.47;;;3.70;93.60;;;;;;5034008;28;20040;-76
2021/11/20 01:46:17;;;;;;;11.15;5.57;;;3.80;93.70;;;;;;5032950;28;20119;-76
2021/11/20 01:48:58;;;;;;;10.45;5.30;;;3.80;93.80;;;;;;5034305;28;20030;-76
2021/11/20 01:51:34;;;;;;;11.05;5.50;;;3.90;94.00;;;;;;5017163;28;20021;-76
2021/11/20 01:54:37;;;;;;;10.20;5.28;;;3.90;93.70;;;;;;5034346;28;20029;-75
2021/11/20 01:57:41;;;;;;;9.07;4.75;;;4.00;93.60;;;;;;5003851;28;20120;-76
2021/11/20 02:00:25;;;;;;;10.32;5.38;;;4.10;93.90;;;;;;5033801;28;20033;-76
2021/11/20 02:03:13;;;;;;;12.30;5.38;;;4.10;93.80;;;;;;5027644;28;20056;-76
2021/11/20 02:05:56;;;;;;;9.55;5.50;;;4.20;94.20;;;;;;5012237;28;20038;-76
2021/11/20 02:08:39;;;;;;;10.75;5.50;;;4.20;94.20;;;;;;5008074;28;20069;-76
2021/11/20 02:11:35;;;;;;;8.70;4.70;;;4.30;94.10;;;;;;5008208;28;20018;-76
2021/11/20 02:14:01;;;;;;;9.63;4.55;;;4.30;94.20;;;;;;4966913;28;20028;-75
2021/11/20 02:16:36;;;;;;;11.98;5.50;;;4.30;94.60;;;;;;5001930;28;20307;-76
2021/11/20 02:19:06;;;;;;;11.32;5.47;;;4.30;94.60;;;;;;4991837;28;20046;-76
2021/11/20 02:21:51;;;;;;;10.30;5.45;;;4.30;94.50;;;;;;4991598;28;20030;-76
2021/11/20 02:24:16;;;;;;;;;;;4.30;94.60;;;;;;5009542;28;20734;-76
2021/11/20 02:26:43;;;;;;;10.25;5.30;;;4.40;94.30;;;;;;4992710;28;19910;-76
2021/11/20 02:29:11;;;;;;;10.73;5.80;;;4.40;94.70;;;;;;5021929;28;20022;-76
2021/11/20 02:31:42;;;;;;;9.05;4.35;;;4.40;94.70;;;;;;5014558;28;20033;-75
2021/11/20 02:34:09;;;;;;;12.65;7.70;;;4.40;94.70;;;;;;5018832;28;20045;-75
2021/11/20 02:36:34;;;;;;;16.67;8.18;;;4.50;95.00;;;;;;5024092;28;20022;-75
2021/11/20 02:39:08;;;;;;;11.50;6.43;;;4.40;95.90;;;;;;5015400;28;20029;-76
2021/11/20 02:41:36;;;;;;;14.77;8.43;;;4.40;95.50;;;;;;5014503;28;20048;-77
2021/11/20 02:44:05;;;;;;;11.45;6.28;;;4.40;95.60;;;;;;5001480;28;20026;-76
2021/11/20 02:46:38;;;;;;;10.27;5.90;;;4.50;95.30;;;;;;5001132;28;20022;-77
2021/11/20 02:49:06;;;;;;;10.20;5.28;;;4.50;95.50;;;;;;5011845;28;20072;-76
2021/11/20 02:51:36;;;;;;;9.13;5.47;;;4.60;95.50;;;;;;5024540;28;20110;-76
2021/11/20 02:54:08;;;;;;;12.32;7.00;;;4.60;95.30;;;;;;5002445;28;20032;-76
2021/11/20 02:56:47;;;;;;;15.25;7.65;;;4.60;95.60;;;;;;5029015;28;20101;-76
2021/11/20 02:59:13;;;;;;;15.45;8.10;;;4.60;96.10;;;;;;5002256;28;20141;-76
2021/11/20 03:01:40;;;;;;;18.23;9.38;;;4.60;95.70;;;;;;5019576;28;20703;-76
2021/11/20 03:04:09;;;;;;;16.75;8.98;;;4.60;95.90;;;;;;5027039;28;20052;-76
2021/11/20 03:06:35;;;;;;;34.25;16.00;;;4.50;95.80;;;;;;5033783;28;20105;-76
2021/11/20 03:09:04;;;;;;;28.20;14.35;;;4.50;95.90;;;;;;5025147;28;20087;-76
2021/11/20 03:11:30;;;;;;;41.53;17.38;;;4.40;95.80;;;;;;5034690;28;20017;-76
2021/11/20 03:14:04;;;;;;;32.92;16.88;;;4.30;95.80;;;;;;5033243;28;20079;-75
2021/11/20 03:16:30;;;;;;;44.85;19.77;;;4.30;96.00;;;;;;5037612;28;20028;-76
2021/11/20 03:18:55;;;;;;;50.50;20.75;;;4.20;95.20;;;;;;5015298;28;20041;-76
2021/11/20 03:21:21;;;;;;;54.08;22.77;;;4.20;95.50;;;;;;5034555;28;20026;-76
2021/11/20 03:23:50;;;;;;;44.20;19.80;;;4.10;95.50;;;;;;5036795;28;21482;-76
2021/11/20 03:26:16;;;;;;;55.03;21.55;;;4.10;94.90;;;;;;5015203;28;20033;-76
2021/11/20 03:28:42;;;;;;;68.53;24.08;;;4.10;95.10;;;;;;5017244;28;20025;-76
2021/11/20 03:31:08;;;;;;;49.15;19.27;;;4.10;95.20;;;;;;5033495;28;20025;-76
2021/11/20 03:33:34;;;;;;;51.95;21.85;;;4.10;94.50;;;;;;5033302;28;20029;-76
2021/11/20 03:36:00;;;;;;;70.57;23.55;;;4.00;95.20;;;;;;5013327;28;20030;-76
2021/11/20 03:38:26;;;;;;;76.00;23.08;;;4.00;95.00;;;;;;5034387;28;20053;-76
2021/11/20 03:40:51;;;;;;;60.67;21.40;;;3.90;94.90;;;;;;5031415;28;20029;-76
2021/11/20 03:43:18;;;;;;;52.95;21.17;;;3.90;94.60;;;;;;5033459;28;20051;-76
2021/11/20 03:45:44;;;;;;;40.63;18.77;;;3.90;94.00;;;;;;5034054;28;20052;-76
2021/11/20 03:48:10;;;;;;;42.13;18.30;;;3.90;93.60;;;;;;5032975;28;20026;-76
2021/11/20 03:50:36;;;;;;;41.45;19.05;;;4.00;93.10;;;;;;5033745;28;20627;-76
2021/11/20 03:53:04;;;;;;;58.22;22.15;;;4.00;93.60;;;;;;5033113;28;20417;-76
2021/11/20 03:55:36;;;;;;;42.50;18.52;;;4.00;93.70;;;;;;5035724;28;20032;-76
2021/11/20 03:58:02;;;;;;;69.80;23.08;;;4.10;93.20;;;;;;5038389;28;20489;-76
2021/11/20 04:00:32;;;;;;;52.92;20.30;;;4.10;93.10;;;;;;5037845;28;20092;-76
2021/11/20 04:02:58;;;;;;;42.15;18.52;;;4.10;93.10;;;;;;5037414;28;20025;-76
2021/11/20 04:05:30;;;;;;;44.67;19.52;;;4.20;93.20;;;;;;5038298;28;20420;-76
2021/11/20 04:07:55;;;;;;;57.95;19.30;;;4.20;93.40;;;;;;5037004;28;20025;-76
2021/11/20 04:10:21;;;;;;;47.05;19.10;;;4.20;93.20;;;;;;5036753;28;20029;-76
2021/11/20 04:12:48;;;;;;;51.00;19.50;;;4.10;93.30;;;;;;5037428;28;20045;-76
2021/11/20 04:15:17;;;;;;;55.30;19.00;;;4.10;94.00;;;;;;5037829;28;20181;-76
2021/11/20 04:17:43;;;;;;;30.88;14.80;;;4.00;94.00;;;;;;5032390;28;20025;-76
2021/11/20 04:20:12;;;;;;;28.45;15.65;;;3.90;93.60;;;;;;5036247;28;20432;-76
2021/11/20 04:22:38;;;;;;;48.05;21.25;;;3.90;93.00;;;;;;5020000;28;20063;-76
2021/11/20 04:25:06;;;;;;;48.10;22.15;;;3.90;93.80;;;;;;5036080;28;20021;-76
2021/11/20 04:27:32;;;;;;;45.30;21.95;;;3.80;94.10;;;;;;5037590;28;20021;-76
2021/11/20 04:29:58;;;;;;;46.75;23.02;;;3.80;93.90;;;;;;5035700;28;20171;-76
2021/11/20 04:32:24;;;;;;;39.60;21.58;;;3.80;93.60;;;;;;5034032;28;20025;-75
2021/11/20 04:34:50;;;;;;;87.45;41.20;;;3.80;93.10;;;;;;5028271;28;20524;-76
2021/11/20 04:37:15;;;;;;;38.75;18.67;;;3.90;93.10;;;;;;5020273;28;20430;-76
2021/11/20 04:39:41;;;;;;;28.73;16.75;;;3.80;93.30;;;;;;5038628;28;20037;-76
2021/11/20 04:42:07;;;;;;;38.25;20.88;;;3.80;93.80;;;;;;5019170;28;20026;-76
2021/11/20 04:44:32;;;;;;;66.93;37.58;;;3.80;93.00;;;;;;5036101;28;20034;-76
2021/11/20 04:46:58;;;;;;;43.47;23.95;;;3.80;93.40;;;;;;5038077;28;20027;-76
2021/11/20 04:49:26;;;;;;;45.80;22.30;;;3.80;93.10;;;;;;5036046;28;20029;-76
2021/11/20 04:51:52;;;;;;;44.72;19.98;;;3.80;93.00;;;;;;5036788;28;20021;-76
2021/11/20 04:54:18;;;;;;;51.40;18.02;;;3.80;93.10;;;;;;5012492;28;20028;-76
2021/11/20 04:56:46;;;;;;;39.40;17.52;;;3.90;92.40;;;;;;5036832;28;20057;-76
2021/11/20 04:59:12;;;;;;;48.42;18.70;;;3.80;92.80;;;;;;5035238;28;20171;-75
2021/11/20 05:01:38;;;;;;;39.95;18.35;;;3.80;92.40;;;;;;5017337;28;20120;-76
2021/11/20 05:04:04;;;;;;;41.17;17.67;;;3.80;92.70;;;;;;5034523;28;20803;-76
2021/11/20 05:06:30;;;;;;;58.08;20.13;;;3.80;92.50;;;;;;5034925;28;20053;-76
2021/11/20 05:08:59;;;;;;;62.60;20.05;;;3.90;92.20;;;;;;5019482;28;20119;-76
2021/11/20 05:11:26;;;;;;;45.88;18.35;;;3.90;92.50;;;;;;5035615;28;20022;-76
2021/11/20 05:13:52;;;;;;;72.95;19.85;;;3.80;92.50;;;;;;5018114;28;20021;-76
2021/11/20 05:16:18;;;;;;;35.33;17.38;;;3.80;92.90;;;;;;5020446;28;20021;-76
2021/11/20 05:18:44;;;;;;;46.53;18.65;;;3.80;92.50;;;;;;5038721;28;20133;-76
2021/11/20 05:21:10;;;;;;;47.70;19.77;;;3.80;92.30;;;;;;5018052;28;20091;-76
2021/11/20 05:23:38;;;;;;;68.90;21.23;;;3.80;91.80;;;;;;5036189;28;20039;-74
2021/11/20 05:26:07;;;;;;;44.80;19.17;;;3.80;91.70;;;;;;5029191;28;20089;-75
2021/11/20 05:28:33;;;;;;;36.85;17.63;;;3.80;91.80;;;;;;5036013;28;20030;-75
2021/11/20 05:31:00;;;;;;;34.15;18.80;;;3.90;91.80;;;;;;5018180;28;20394;-75
2021/11/20 05:33:47;;;;;;;37.75;18.10;;;3.90;91.40;;;;;;5019153;28;20033;-75
2021/11/20 05:36:14;;;;;;;47.35;20.00;;;3.90;91.50;;;;;;5016998;28;20052;-77
2021/11/20 05:38:41;;;;;;;49.63;20.52;;;4.00;91.70;;;;;;5017958;28;20362;-76
2021/11/20 05:41:10;;;;;;;61.08;19.92;;;4.00;91.10;;;;;;5033775;28;20033;-76
2021/11/20 05:43:36;;;;;;;54.70;22.02;;;4.00;91.30;;;;;;5034399;28;20072;-75
2021/11/20 05:46:10;;;;;;;61.75;23.02;;;4.00;91.40;;;;;;5035247;28;20048;-76
2021/11/20 05:48:39;;;;;;;66.20;26.52;;;4.00;91.80;;;;;;5035218;28;20026;-76
2021/11/20 05:51:06;;;;;;;54.97;24.10;;;4.00;91.70;;;;;;5019497;28;20053;-76
2021/11/20 05:53:31;;;;;;;52.30;23.00;;;4.00;91.50;;;;;;5021125;28;20025;-76
2021/11/20 05:55:59;;;;;;;88.75;23.25;;;3.90;91.70;;;;;;5015017;28;20291;-76
2021/11/20 05:58:24;;;;;;;35.70;18.80;;;3.90;91.80;;;;;;5035358;28;20434;-76
2021/11/20 06:00:53;;;;;;;47.78;22.08;;;3.90;92.20;;;;;;5034967;28;20030;-75
2021/11/20 06:03:21;;;;;;;40.20;18.85;;;3.80;92.30;;;;;;5037249;28;20029;-76
2021/11/20 06:05:47;;;;;;;60.45;22.30;;;3.80;92.00;;;;;;5034422;28;20632;-75
2021/11/20 06:08:15;;;;;;;42.95;19.90;;;3.80;92.10;;;;;;5033969;28;20335;-76
2021/11/20 06:10:42;;;;;;;56.55;21.65;;;3.90;91.60;;;;;;5034172;28;20304;-76
2021/11/20 06:13:09;;;;;;;85.43;25.83;;;3.90;91.60;;;;;;5040848;28;20096;-76
2021/11/20 06:15:35;;;;;;;62.42;23.42;;;3.90;91.50;;;;;;5035727;28;20049;-76
2021/11/20 06:18:01;;;;;;;43.85;19.42;;;3.90;91.80;;;;;;5032831;28;20422;-76
2021/11/20 06:20:27;;;;;;;61.38;25.83;;;3.90;91.60;;;;;;5033403;28;20072;-76
2021/11/20 06:22:53;;;;;;;70.05;26.70;;;3.90;91.60;;;;;;5019166;28;20040;-76
2021/11/20 06:25:20;;;;;;;78.88;31.42;;;4.00;91.40;;;;;;5032708;28;20026;-76
2021/11/20 06:27:46;;;;;;;84.43;32.97;;;4.00;92.20;;;;;;5017053;28;20360;-76
2021/11/20 06:30:16;;;;;;;70.15;32.17;;;4.00;92.10;;;;;;5033893;28;20025;-76
2021/11/20 06:32:42;;;;;;;50.20;25.63;;;4.00;92.10;;;;;;5034952;28;20418;-76
2021/11/20 06:35:11;;;;;;;62.50;29.15;;;4.00;92.00;;;;;;5037403;28;20021;-75
2021/11/20 06:37:41;;;;;;;35.55;19.08;;;4.00;91.90;;;;;;5016786;28;20164;-76
2021/11/20 06:40:36;;;;;;;58.67;30.23;;;4.00;92.30;;;;;;5040354;28;20037;-76
2021/11/20 06:43:03;;;;;;;37.78;18.20;;;4.00;92.20;;;;;;5015484;28;20035;-76
2021/11/20 06:45:40;;;;;;;38.50;19.25;;;4.10;91.90;;;;;;5017675;28;20033;-76
2021/11/20 06:48:06;;;;;;;29.83;16.45;;;4.10;92.40;;;;;;5033241;28;20025;-76
2021/11/20 06:50:34;;;;;;;25.95;14.20;;;4.10;92.30;;;;;;5015797;28;20102;-76
2021/11/20 06:53:07;;;;;;;26.00;13.10;;;4.10;92.10;;;;;;5032859;28;20021;-76
2021/11/20 06:55:35;;;;;;;24.65;11.65;;;4.20;92.10;;;;;;5033301;28;20025;-76
2021/11/20 07:00:56;;;;;;;19.00;10.23;;;4.30;91.90;;;;;;5013471;28;20079;-76
2021/11/20 07:03:24;;;;;;;23.48;14.73;;;4.40;92.40;;;;;;5032134;28;20128;-76
2021/11/20 07:05:54;;;;;;;21.25;11.88;;;4.40;92.30;;;;;;5016288;28;20095;-76
2021/11/20 07:08:20;;;;;;;17.08;9.43;;;4.50;92.20;;;;;;5028759;28;20037;-76
2021/11/20 07:10:46;;;;;;;16.73;8.80;;;4.60;93.10;;;;;;5033191;28;20491;-76
2021/11/20 07:13:13;;;;;;;16.70;8.75;;;4.60;93.00;;;;;;5033857;28;20033;-76
2021/11/20 07:15:39;;;;;;;19.90;9.60;;;4.70;92.90;;;;;;5033144;28;20032;-76
2021/11/20 07:18:05;;;;;;;20.85;10.82;;;4.80;92.90;;;;;;5033992;28;20048;-76
2021/11/20 07:20:35;;;;;;;16.27;8.68;;;4.80;94.80;;;;;;5016611;28;20029;-76
2021/11/20 07:23:00;;;;;;;9.60;5.13;;;4.90;94.20;;;;;;5034340;28;20036;-76
2021/11/20 07:25:28;;;;;;;9.93;4.88;;;5.00;95.20;;;;;;5032824;28;20322;-76
2021/11/20 07:27:55;;;;;;;12.77;7.60;;;5.10;95.80;;;;;;5034171;28;20033;-76
2021/11/20 07:30:24;;;;;;;8.10;4.05;;;5.10;96.90;;;;;;5035711;28;20025;-76
2021/11/20 07:32:51;;;;;;;8.90;4.90;;;5.20;96.60;;;;;;5038113;28;20418;-76
2021/11/20 07:35:33;;;;;;;7.80;4.18;;;5.20;98.00;;;;;;5037473;28;20418;-76
2021/11/20 07:38:01;;;;;;;5.53;3.00;;;5.30;97.90;;;;;;5016383;28;20415;-76
2021/11/20 07:40:30;;;;;;;5.40;2.78;;;5.40;98.00;;;;;;5039665;28;20465;-76
2021/11/20 07:42:56;;;;;;;5.82;3.08;;;5.40;98.00;;;;;;5019871;28;20021;-76
2021/11/20 07:45:21;;;;;;;5.28;2.90;;;5.50;98.00;;;;;;5037415;28;20017;-76
2021/11/20 07:47:47;;;;;;;5.40;3.05;;;5.40;98.00;;;;;;5037178;28;20332;-76
2021/11/20 07:50:16;;;;;;;5.70;3.15;;;5.40;98.00;;;;;;5040873;28;20436;-76
2021/11/20 07:52:42;;;;;;;5.80;3.30;;;5.40;98.00;;;;;;5036823;28;20026;-76
2021/11/20 07:55:11;;;;;;;5.32;3.38;;;5.50;98.00;;;;;;5019341;28;20080;-76
2021/11/20 07:57:37;;;;;;;6.28;3.20;;;5.50;98.00;;;;;;5043925;28;20036;-76
2021/11/20 08:00:13;;;;;;;6.03;3.10;;;5.50;98.00;;;;;;5040462;28;20044;-76
2021/11/20 08:02:39;;;;;;;4.60;2.63;;;5.60;98.00;;;;;;5036570;28;20063;-76
2021/11/20 08:05:05;;;;;;;5.65;3.00;;;5.60;98.00;;;;;;5036286;28;20090;-76
2021/11/20 08:07:31;;;;;;;5.70;3.13;;;5.70;98.00;;;;;;5037090;28;20116;-76
2021/11/20 08:09:58;;;;;;;5.22;3.17;;;5.80;98.00;;;;;;5036378;28;20037;-76
2021/11/20 08:12:23;;;;;;;5.53;2.97;;;5.90;98.00;;;;;;5037169;28;20017;-76
2021/11/20 08:14:49;;;;;;;4.50;2.40;;;6.00;98.00;;;;;;5028567;28;20472;-76
2021/11/20 08:17:15;;;;;;;4.78;2.72;;;6.20;98.00;;;;;;5034507;28;21569;-76
2021/11/20 08:19:41;;;;;;;5.47;3.10;;;6.30;98.00;;;;;;5036181;28;20029;-75
2021/11/20 08:22:06;;;;;;;9.63;6.05;;;6.30;98.00;;;;;;5035703;28;20332;-75
2021/11/20 08:24:33;;;;;;;11.10;6.75;;;6.30;98.00;;;;;;5018705;28;20112;-75
2021/11/20 08:27:00;;;;;;;9.50;5.55;;;6.30;98.00;;;;;;5018765;28;21285;-76
2021/11/20 08:29:30;;;;;;;12.73;7.05;;;6.20;98.00;;;;;;5036619;28;20029;-76
2021/11/20 08:31:56;;;;;;;16.20;8.75;;;6.10;98.00;;;;;;5035146;28;20061;-75
2021/11/20 08:34:22;;;;;;;15.13;7.47;;;5.90;98.00;;;;;;5036202;28;20062;-74
2021/11/20 08:36:48;;;;;;;10.70;5.95;;;5.80;98.00;;;;;;5036783;28;20025;-74
2021/11/20 08:39:15;;;;;;;14.48;8.20;;;5.90;98.00;;;;;;5035475;28;20030;-74
2021/11/20 08:41:46;;;;;;;14.82;8.13;;;6.00;98.00;;;;;;5038075;28;20109;-76
2021/11/20 08:44:12;;;;;;;10.63;6.28;;;6.00;98.00;;;;;;5036292;28;20036;-75
2021/11/20 08:46:40;;;;;;;9.43;5.85;;;6.00;98.00;;;;;;5017553;28;20025;-76
2021/11/20 08:49:06;;;;;;;7.38;4.53;;;6.10;98.00;;;;;;5036253;28;20030;-76
2021/11/20 08:51:34;;;;;;;7.65;4.65;;;6.30;98.00;;;;;;5036994;28;20470;-76
2021/11/20 08:54:00;;;;;;;6.40;4.10;;;6.50;98.00;;;;;;5035343;28;20037;-76
2021/11/20 08:56:27;;;;;;;5.20;3.50;;;6.40;98.00;;;;;;5035753;28;20033;-76
2021/11/20 08:58:53;;;;;;;6.97;3.90;;;6.30;98.00;;;;;;5036158;28;20022;-76
2021/11/20 09:01:31;;;;;;;6.53;3.30;;;5.80;98.00;;;;;;5036392;28;20032;-76
2021/11/20 09:04:06;;;;;;;6.43;3.80;;;5.80;98.00;;;;;;5019217;28;20549;-76
2021/11/20 09:06:40;;;;;;;6.95;3.95;;;6.00;98.00;;;;;;5035027;28;20060;-76
2021/11/20 09:09:20;;;;;;;5.72;3.55;;;6.20;98.00;;;;;;5034414;28;20458;-76
2021/11/20 09:11:57;;;;;;;5.90;3.58;;;6.50;98.00;;;;;;5035830;28;20033;-76
2021/11/20 09:14:28;;;;;;;5.50;3.40;;;6.60;98.00;;;;;;5035801;28;20029;-75
2021/11/20 09:16:58;;;;;;;6.22;3.42;;;6.60;98.00;;;;;;5035642;28;20033;-75
2021/11/20 09:19:28;;;;;;;6.53;3.67;;;6.50;98.00;;;;;;5035772;28;20041;-76
2021/11/20 09:21:56;;;;;;;6.15;3.55;;;6.50;98.00;;;;;;5017830;28;20314;-76
2021/11/20 09:24:22;;;;;;;5.72;2.92;;;6.50;98.00;;;;;;5034208;28;20429;-75
2021/11/20 09:26:48;;;;;;;5.90;3.10;;;6.70;98.00;;;;;;5036003;28;20373;-75
2021/11/20 09:29:17;;;;;;;6.63;3.13;;;6.90;98.00;;;;;;5034000;28;20112;-75
2021/11/20 09:31:44;;;;;;;6.40;3.17;;;7.00;98.00;;;;;;5035000;28;20018;-75
2021/11/20 09:34:11;;;;;;;4.75;2.90;;;7.10;98.00;;;;;;5032556;28;20120;-75
2021/11/20 09:36:38;;;;;;;6.65;4.18;;;7.50;98.00;;;;;;5035165;28;20029;-75
2021/11/20 09:39:06;;;;;;;4.75;2.80;;;7.60;98.00;;;;;;5034747;28;20037;-75
2021/11/20 09:41:56;;;;;;;5.07;3.00;;;7.90;98.00;;;;;;5018114;28;20084;-75
2021/11/20 09:44:22;;;;;;;5.65;2.90;;;8.10;97.20;;;;;;5035938;28;20029;-75
2021/11/20 09:46:52;;;;;;;4.97;2.80;;;8.20;96.20;;;;;;5036054;28;20036;-75
2021/11/20 09:49:34;;;;;;;5.03;3.08;;;8.10;96.80;;;;;;5018238;28;20021;-75
2021/11/20 09:52:01;;;;;;;4.38;2.50;;;8.30;97.00;;;;;;5017768;28;20028;-75
2021/11/20 09:54:36;;;;;;;4.93;2.60;;;8.50;95.80;;;;;;5032565;28;20320;-75
2021/11/20 09:57:08;;;;;;;4.47;2.45;;;8.40;95.30;;;;;;5018110;28;20436;-75
2021/11/20 09:59:44;;;;;;;4.63;2.60;;;8.40;95.20;;;;;;5034366;28;20032;-76
2021/11/20 10:02:39;;;;;;;4.38;2.47;;;8.40;95.60;;;;;;5023581;28;20022;-75
2021/11/20 10:05:08;;;;;;;4.70;2.67;;;8.50;95.90;;;;;;5002594;28;20041;-76
2021/11/20 10:07:43;;;;;;;6.65;2.97;;;8.30;95.60;;;;;;4996606;28;20366;-75
2021/11/20 10:10:15;;;;;;;4.13;2.25;;;8.20;95.50;;;;;;5013396;28;20045;-76
2021/11/20 10:12:45;;;;;;;4.15;2.35;;;8.30;95.40;;;;;;5015180;28;20124;-76
2021/11/20 10:15:26;;;;;;;5.85;2.63;;;8.80;94.30;;;;;;4998960;28;20030;-75
2021/11/20 10:18:13;;;;;;;5.07;2.95;;;8.70;94.10;;;;;;5016435;28;20026;-76
2021/11/20 10:21:10;;;;;;;6.70;4.47;;;8.80;94.50;;;;;;5009188;28;20029;-76
2021/11/20 10:23:45;;;;;;;5.68;3.53;;;9.10;93.70;;;;;;5014088;28;20472;-75
2021/11/20 10:26:45;;;;;;;4.88;3.10;;;9.00;93.20;;;;;;5005359;28;20112;-75
2021/11/20 10:29:25;;;;;;;7.03;4.70;;;8.70;93.70;;;;;;4998050;28;20026;-75
2021/11/20 10:32:15;;;;;;;5.38;3.08;;;8.60;94.00;;;;;;5008380;28;20651;-76
2021/11/20 10:34:57;;;;;;;5.78;3.47;;;8.60;94.60;;;;;;4997861;28;20029;-76
2021/11/20 10:37:27;;;;;;;5.18;2.85;;;9.00;94.50;;;;;;5013705;28;20469;-75
2021/11/20 10:40:01;;;;;;;5.40;2.70;;;9.10;94.70;;;;;;5011176;28;20101;-75
2021/11/20 10:42:29;;;;;;;4.47;2.50;;;9.40;93.00;;;;;;5013852;28;20018;-75
2021/11/20 10:45:09;;;;;;;3.80;2.08;;;9.70;91.30;;;;;;5014921;28;20021;-74
2021/11/20 10:47:40;;;;;;;3.85;2.15;;;10.20;90.20;;;;;;5014335;28;20068;-74
2021/11/20 10:50:30;;;;;;;3.65;2.00;;;10.40;89.00;;;;;;5014700;28;20025;-74
2021/11/20 10:53:14;;;;;;;8.82;2.70;;;9.90;90.40;;;;;;5015139;28;20032;-75
2021/11/20 10:55:56;;;;;;;5.57;2.42;;;10.10;89.80;;;;;;5013291;28;20033;-75
2021/11/20 10:58:49;;;;;;;3.90;1.80;;;10.50;90.10;;;;;;5014902;28;20373;-75
2021/11/20 11:01:33;;;;;;;4.63;1.90;;;10.90;87.80;;;;;;5014408;28;20033;-75
2021/11/20 11:04:36;;;;;;;8.23;2.37;;;11.50;86.00;;;;;;5019351;28;20051;-75
2021/11/20 11:07:21;;;;;;;3.40;1.83;;;11.60;86.20;;;;;;5034457;28;20373;-75
2021/11/20 11:09:56;;;;;;;3.72;2.00;;;12.00;84.70;;;;;;5015292;28;20029;-75
2021/11/20 11:12:21;;;;;;;3.63;2.03;;;12.30;83.00;;;;;;5034746;28;20021;-76
2021/11/20 11:14:56;;;;;;;3.42;1.63;;;12.80;81.40;;;;;;5014013;28;20022;-75
2021/11/20 11:17:39;;;;;;;3.83;1.85;;;13.20;81.20;;;;;;5027560;28;20025;-76
2021/11/20 11:20:12;;;;;;;3.67;1.80;;;13.20;79.30;;;;;;5016984;28;20030;-76
2021/11/20 11:22:44;;;;;;;3.83;2.00;;;13.20;80.40;;;;;;5034610;28;20445;-76
2021/11/20 11:25:22;;;;;;;3.72;2.00;;;13.10;79.30;;;;;;5015558;28;20083;-75
2021/11/20 11:28:01;;;;;;;3.30;1.90;;;12.90;80.00;;;;;;5016514;28;20029;-76
2021/11/20 11:31:01;;;;;;;4.40;2.20;;;11.70;82.00;;;;;;5031517;28;20022;-75
2021/11/20 11:33:32;;;;;;;4.15;2.30;;;10.40;86.80;;;;;;5026676;28;20032;-75
2021/11/20 11:36:15;;;;;;;5.00;2.47;;;9.90;89.30;;;;;;5035048;28;20083;-75
2021/11/20 11:38:55;;;;;;;4.43;2.45;;;9.80;89.30;;;;;;5033936;28;20026;-75
2021/11/20 11:41:27;;;;;;;4.20;2.60;;;9.60;90.30;;;;;;5034006;28;20026;-75
2021/11/20 11:44:31;;;;;;;5.72;3.10;;;9.80;90.50;;;;;;5033816;28;20303;-76
2021/11/20 11:47:18;;;;;;;4.95;3.00;;;10.40;89.90;;;;;;5030256;28;20065;-76
2021/11/20 11:49:43;;;;;;;5.55;3.35;;;11.80;86.00;;;;;;5032126;28;20391;-75
2021/11/20 11:52:44;;;;;;;5.22;3.15;;;11.40;85.50;;;;;;5016576;28;20108;-75
2021/11/20 11:55:31;;;;;;;4.90;2.75;;;10.80;87.80;;;;;;5030116;28;20426;-75
2021/11/20 11:58:05;;;;;;;4.45;2.50;;;11.10;88.20;;;;;;5028244;28;20033;-76
2021/11/20 12:00:40;;;;;;;4.70;2.47;;;11.50;87.30;;;;;;5016403;28;20025;-76
2021/11/20 12:03:26;;;;;;;4.30;2.30;;;12.20;85.40;;;;;;5016406;28;20020;-76
2021/11/20 12:06:29;;;;;;;5.15;2.40;;;13.00;82.30;;;;;;5016736;28;20040;-75
2021/11/20 12:09:00;;;;;;;4.18;2.25;;;12.30;82.70;;;;;;5030426;28;20041;-76
2021/11/20 12:11:29;;;;;;;5.72;2.65;;;12.00;84.70;;;;;;5033195;28;20021;-76
2021/11/20 12:14:06;;;;;;;12.50;5.28;;;12.00;84.80;;;;;;5033887;28;20025;-76
2021/11/20 12:16:56;;;;;;;6.65;4.43;;;11.30;85.90;;;;;;5018298;28;20025;-75
2021/11/20 12:19:24;;;;;;;7.18;4.43;;;11.10;87.70;;;;;;5019456;28;20173;-75
2021/11/20 12:22:20;;;;;;;10.95;5.20;;;10.80;88.80;;;;;;5037693;28;20029;-75
2021/11/20 12:24:52;;;;;;;7.72;4.43;;;10.90;89.10;;;;;;5034144;28;20041;-75
2021/11/20 12:27:54;;;;;;;11.90;6.20;;;11.00;88.50;;;;;;5020097;28;20026;-76
2021/11/20 12:30:41;;;;;;;11.15;5.55;;;11.10;88.40;;;;;;5036990;28;20022;-76
2021/11/20 12:33:35;;;;;;;7.90;4.88;;;11.30;88.10;;;;;;5031738;28;20025;-76
2021/11/20 12:36:46;;;;;;;8.68;3.85;;;10.70;89.30;;;;;;5034833;28;20025;-75
2021/11/20 12:39:14;;;;;;;9.27;4.90;;;11.20;88.20;;;;;;5029731;28;20315;-75
2021/11/20 12:42:05;;;;;;;8.15;4.90;;;10.70;88.30;;;;;;5035990;28;20029;-75
2021/11/20 12:44:38;;;;;;;9.60;5.55;;;10.10;90.90;;;;;;5036398;28;20033;-75
2021/11/20 12:47:33;;;;;;;8.63;5.43;;;10.00;91.80;;;;;;5029719;28;20112;-75
2021/11/20 12:50:07;;;;;;;9.82;5.93;;;9.80;92.00;;;;;;5036537;28;20029;-76
2021/11/20 12:52:57;;;;;;;8.45;5.35;;;9.90;93.10;;;;;;5019300;28;20033;-76
2021/11/20 12:55:44;;;;;;;9.85;5.82;;;9.80;92.40;;;;;;5034901;28;20076;-75
2021/11/20 12:58:29;;;;;;;8.77;6.07;;;9.60;93.40;;;;;;5029699;28;20057;-75
2021/11/20 13:00:55;;;;;;;9.98;6.53;;;9.80;92.90;;;;;;5035532;28;20030;-75
2021/11/20 13:03:44;;;;;;;9.77;5.88;;;9.70;93.00;;;;;;5036195;28;20426;-74
2021/11/20 13:06:24;;;;;;;9.15;5.93;;;9.90;93.20;;;;;;5034046;28;20045;-74
2021/11/20 13:08:57;;;;;;;9.57;6.07;;;10.10;92.00;;;;;;5035255;28;20030;-76
2021/11/20 13:11:33;;;;;;;10.50;6.15;;;10.00;91.70;;;;;;5036304;28;20021;-76
2021/11/20 13:14:17;;;;;;;11.20;6.50;;;10.00;92.70;;;;;;5036455;28;20021;-76